Planet Ace — 3EYF9 — position and weather

sailwx.info

Track history (hours):
 
Tides and Currents Weather Stations Pressure Air Temp Water Temp Dewpoint Dewpoint Depression Visibility Wind Speed Wind Dir Waves Ship Positions

Planet Ace

Last reported at 2017-Jan-20 19:33 UTC. Time now 2017-Jan-20 20:12 UTC.
Position N 43°35' E 010°18'.

Length 188 m; beam 28.2 m.

Type: Cargo ship. MMSI: 352168000.

Date/timePositionNaut miles runAvg speedWind from/ knotsBaromVisibWave heightAir tempDewpointWater temp
2017-Jan-20 19:33N 43°35' E 010°18'0 0.0
2017-Jan-20 18:33N 43°35' E 010°18'0 0.0
2017-Jan-20 17:33N 43°35' E 010°18'0 0.0
2017-Jan-20 16:33N 43°35' E 010°18'0 0.0
2017-Jan-20 15:33N 43°35' E 010°18'0 0.0
2017-Jan-20 14:33N 43°35' E 010°18'0 0.0
2017-Jan-20 13:30N 43°35' E 010°18'0 0.0
2017-Jan-20 12:33N 43°35' E 010°18'0 0.0
2017-Jan-20 11:33N 43°35' E 010°18'0 0.0
2017-Jan-20 10:33N 43°35' E 010°18'0 0.0
2017-Jan-20 09:33N 43°35' E 010°18'0 0.0
2017-Jan-20 08:32N 43°35' E 010°18'0 0.0
2017-Jan-20 07:32N 43°35' E 010°18'0 0.0
2017-Jan-20 06:32N 43°35' E 010°18'0 0.0
2017-Jan-20 05:32N 43°35' E 010°18'0 0.0
2017-Jan-20 04:32N 43°35' E 010°18'0 0.0
2017-Jan-20 03:32N 43°35' E 010°18'0 0.0
2017-Jan-20 02:29N 43°35' E 010°18'0 0.0
2017-Jan-20 01:32N 43°35' E 010°18'0 0.0
2017-Jan-20 00:32N 43°35' E 010°18'0 0.0
2017-Jan-19 23:29N 43°35' E 010°18'0 0.0
2017-Jan-19 22:32N 43°35' E 010°18'0 0.0
2017-Jan-19 21:33N 43°35' E 010°18'6 5.8
2017-Jan-19 20:33N 43°30' E 010°13'3 3.2
2017-Jan-19 19:33N 43°28' E 010°10'5 5.5
2017-Jan-19 18:33N 43°30' E 010°03'2 1.8
2017-Jan-19 17:33N 43°30' E 010°06'2 1.9
2017-Jan-19 16:33N 43°29' E 010°08'4 4.2
2017-Jan-19 15:33N 43°26' E 010°05'1 0.7
2017-Jan-19 14:33N 43°25' E 010°06'2 2.0
2017-Jan-19 13:26N 43°27' E 010°08'1 1.2
2017-Jan-19 12:33N 43°28' E 010°09'4 3.6
2017-Jan-19 11:33N 43°27' E 010°04'1 1.3
2017-Jan-19 10:33N 43°28' E 010°05'2 1.9
2017-Jan-19 09:33N 43°28' E 010°02'2 1.9
2017-Jan-19 08:33N 43°27' E 010°04'1 1.0
2017-Jan-19 07:33N 43°26' E 010°04'2 1.7
2017-Jan-19 06:33N 43°27' E 010°06'3 3.1
2017-Jan-19 05:33N 43°29' E 010°03'3 2.7
2017-Jan-19 04:33N 43°27' E 010°06'5 5.3
2017-Jan-19 03:33N 43°30' E 010°13'9 8.8
2017-Jan-19 02:33N 43°23' E 010°05'9 9.0
2017-Jan-19 01:33N 43°18' E 009°55'10 9.5
2017-Jan-19 00:33N 43°15' E 009°42'10 9.6
2017-Jan-18 23:33N 43°12' E 009°30'9 9.5
2017-Jan-18 22:33N 43°09' E 009°18'  
2017-Jan-16 10:12N 41°15' E 002°11'811.7
2017-Jan-16 09:33N 41°09' E 002°06'1212.1
2017-Jan-16 08:33N 40°58' E 001°59'1414.0
2017-Jan-16 07:33N 40°46' E 001°50'1414.0
2017-Jan-16 06:33N 40°33' E 001°41'1212.2
2017-Jan-16 05:33N 40°22' E 001°34'1010.4
2017-Jan-16 04:34N 40°13' E 001°29'1010.3
2017-Jan-16 03:33N 40°04' E 001°22'1110.6
2017-Jan-16 02:34N 39°54' E 001°16'12611.3
2017-Jan-15 15:25N 38°05' W 000°04'1111.5
2017-Jan-15 14:27N 37°55' W 000°12'1211.3
2017-Jan-15 13:22N 37°45' W 000°20'911.0
2017-Jan-15 12:33N 37°38' W 000°27'1211.7
2017-Jan-15 11:33N 37°29' W 000°36'1211.7
2017-Jan-15 10:33N 37°21' W 000°48'1111.4
2017-Jan-15 09:33N 37°14' W 000°58'1411.6
2017-Jan-15 08:22N 37°05' W 001°11'423 9.7
2017-Jan-13 12:33N 38°19' W 009°58'1515.4
2017-Jan-13 11:33N 38°34' W 010°03'1615.7
2017-Jan-13 10:34N 38°49' W 010°05'1616.2
2017-Jan-13 09:33N 39°05' W 010°06'1716.4
2017-Jan-13 08:33N 39°22' W 010°06'65115.4
2017-Jan-11 14:08N 49°30' W 004°40'914.3
2017-Jan-11 13:32N 49°36' W 004°31'1715.3
2017-Jan-11 12:25N 49°48' W 004°12'1416.4
2017-Jan-11 11:33N 49°58' W 003°56'1817.1
2017-Jan-11 10:31N 50°10' W 003°36'1515.4
2017-Jan-11 09:33N 50°23' W 003°25'1110.7
2017-Jan-11 08:33N 50°25' W 003°09'2713.3
2017-Jan-11 06:33N 50°27' W 002°27'2512.3
2017-Jan-11 04:33N 50°25' W 001°49'1514.3
2017-Jan-11 03:28N 50°25' W 001°24'1516.2
2017-Jan-11 02:32N 50°26' W 001°01'1817.3
2017-Jan-11 01:30N 50°28' W 000°33'1616.9
2017-Jan-11 00:34N 50°31' W 000°08'1616.4
2017-Jan-10 23:34N 50°34' E 000°17'1615.7
2017-Jan-10 22:34N 50°40' E 000°40'1514.9
2017-Jan-10 21:33N 50°49' E 000°59'1514.6
2017-Jan-10 20:33N 50°58' E 001°17'1515.5
2017-Jan-10 19:34N 51°07' E 001°37'  
Track history (hours):
 
Tides and Currents Weather Stations Pressure Air Temp Water Temp Dewpoint Dewpoint Depression Visibility Wind Speed Wind Dir Waves Ship Positions

Planet Ace

Last reported at 2017-Jan-20 19:33 UTC. Time now 2017-Jan-20 20:12 UTC.
Position N 43°35' E 010°18'.

Length 188 m; beam 28.2 m.

Type: Cargo ship. MMSI: 352168000.

Date/timePositionNaut miles runAvg speedWind from/ knotsBaromVisibWave heightAir tempDewpointWater temp
2017-Jan-20 19:33N 43°35' E 010°18'0 0.0
2017-Jan-20 18:33N 43°35' E 010°18'0 0.0
2017-Jan-20 17:33N 43°35' E 010°18'0 0.0
2017-Jan-20 16:33N 43°35' E 010°18'0 0.0
2017-Jan-20 15:33N 43°35' E 010°18'0 0.0
2017-Jan-20 14:33N 43°35' E 010°18'0 0.0
2017-Jan-20 13:30N 43°35' E 010°18'0 0.0
2017-Jan-20 12:33N 43°35' E 010°18'0 0.0
2017-Jan-20 11:33N 43°35' E 010°18'0 0.0
2017-Jan-20 10:33N 43°35' E 010°18'0 0.0
2017-Jan-20 09:33N 43°35' E 010°18'0 0.0
2017-Jan-20 08:32N 43°35' E 010°18'0 0.0
2017-Jan-20 07:32N 43°35' E 010°18'0 0.0
2017-Jan-20 06:32N 43°35' E 010°18'0 0.0
2017-Jan-20 05:32N 43°35' E 010°18'0 0.0
2017-Jan-20 04:32N 43°35' E 010°18'0 0.0
2017-Jan-20 03:32N 43°35' E 010°18'0 0.0
2017-Jan-20 02:29N 43°35' E 010°18'0 0.0
2017-Jan-20 01:32N 43°35' E 010°18'0 0.0
2017-Jan-20 00:32N 43°35' E 010°18'0 0.0
2017-Jan-19 23:29N 43°35' E 010°18'0 0.0
2017-Jan-19 22:32N 43°35' E 010°18'0 0.0
2017-Jan-19 21:33N 43°35' E 010°18'6 5.8
2017-Jan-19 20:33N 43°30' E 010°13'3 3.2
2017-Jan-19 19:33N 43°28' E 010°10'5 5.5
2017-Jan-19 18:33N 43°30' E 010°03'2 1.8
2017-Jan-19 17:33N 43°30' E 010°06'2 1.9
2017-Jan-19 16:33N 43°29' E 010°08'4 4.2
2017-Jan-19 15:33N 43°26' E 010°05'1 0.7
2017-Jan-19 14:33N 43°25' E 010°06'2 2.0
2017-Jan-19 13:26N 43°27' E 010°08'1 1.2
2017-Jan-19 12:33N 43°28' E 010°09'4 3.6
2017-Jan-19 11:33N 43°27' E 010°04'1 1.3
2017-Jan-19 10:33N 43°28' E 010°05'2 1.9
2017-Jan-19 09:33N 43°28' E 010°02'2 1.9
2017-Jan-19 08:33N 43°27' E 010°04'1 1.0
2017-Jan-19 07:33N 43°26' E 010°04'2 1.7
2017-Jan-19 06:33N 43°27' E 010°06'3 3.1
2017-Jan-19 05:33N 43°29' E 010°03'3 2.7
2017-Jan-19 04:33N 43°27' E 010°06'5 5.3
2017-Jan-19 03:33N 43°30' E 010°13'9 8.8
2017-Jan-19 02:33N 43°23' E 010°05'9 9.0
2017-Jan-19 01:33N 43°18' E 009°55'10 9.5
2017-Jan-19 00:33N 43°15' E 009°42'10 9.6
2017-Jan-18 23:33N 43°12' E 009°30'9 9.5
2017-Jan-18 22:33N 43°09' E 009°18'  
2017-Jan-16 10:12N 41°15' E 002°11'811.7
2017-Jan-16 09:33N 41°09' E 002°06'1212.1
2017-Jan-16 08:33N 40°58' E 001°59'1414.0
2017-Jan-16 07:33N 40°46' E 001°50'1414.0
2017-Jan-16 06:33N 40°33' E 001°41'1212.2
2017-Jan-16 05:33N 40°22' E 001°34'1010.4
2017-Jan-16 04:34N 40°13' E 001°29'1010.3
2017-Jan-16 03:33N 40°04' E 001°22'1110.6
2017-Jan-16 02:34N 39°54' E 001°16'12611.3
2017-Jan-15 15:25N 38°05' W 000°04'1111.5
2017-Jan-15 14:27N 37°55' W 000°12'1211.3
2017-Jan-15 13:22N 37°45' W 000°20'911.0
2017-Jan-15 12:33N 37°38' W 000°27'1211.7
2017-Jan-15 11:33N 37°29' W 000°36'1211.7
2017-Jan-15 10:33N 37°21' W 000°48'1111.4
2017-Jan-15 09:33N 37°14' W 000°58'1411.6
2017-Jan-15 08:22N 37°05' W 001°11'423 9.7
2017-Jan-13 12:33N 38°19' W 009°58'1515.4
2017-Jan-13 11:33N 38°34' W 010°03'1615.7
2017-Jan-13 10:34N 38°49' W 010°05'1616.2
2017-Jan-13 09:33N 39°05' W 010°06'1716.4
2017-Jan-13 08:33N 39°22' W 010°06'65115.4
2017-Jan-11 14:08N 49°30' W 004°40'914.3
2017-Jan-11 13:32N 49°36' W 004°31'1715.3
2017-Jan-11 12:25N 49°48' W 004°12'1416.4
2017-Jan-11 11:33N 49°58' W 003°56'1817.1
2017-Jan-11 10:31N 50°10' W 003°36'1515.4
2017-Jan-11 09:33N 50°23' W 003°25'1110.7
2017-Jan-11 08:33N 50°25' W 003°09'2713.3
2017-Jan-11 06:33N 50°27' W 002°27'2512.3
2017-Jan-11 04:33N 50°25' W 001°49'1514.3
2017-Jan-11 03:28N 50°25' W 001°24'1516.2
2017-Jan-11 02:32N 50°26' W 001°01'1817.3
2017-Jan-11 01:30N 50°28' W 000°33'1616.9
2017-Jan-11 00:34N 50°31' W 000°08'1616.4
2017-Jan-10 23:34N 50°34' E 000°17'1615.7
2017-Jan-10 22:34N 50°40' E 000°40'1514.9
2017-Jan-10 21:33N 50°49' E 000°59'1514.6
2017-Jan-10 20:33N 50°58' E 001°17'1515.5
2017-Jan-10 19:34N 51°07' E 001°37'  

Dump ship's entire track history